| time (UTC) | temp F | wind direction | speed MPH | gust MPH | rain 1hr in | rain 24hr in | rain mn in | humidity % | barometer mb |
| 20260510015503 | 55 | 0 | 0.0 | 0.0 | 0.03 | 0.86 | 0.80 | 94 | 1007.6 |
| 20260510015003 | 55 | 0 | 0.0 | 0.0 | 0.05 | 0.86 | 0.80 | 94 | 1007.6 |
| 20260510014503 | 55 | 0 | 0.0 | 0.0 | 0.07 | 0.86 | 0.80 | 94 | 1007.5 |
| 20260510014004 | 55 | 0 | 0.0 | 0.0 | 0.11 | 0.87 | 0.80 | 94 | 1007.6 |
| 20260510013504 | 54 | 0 | 0.0 | 0.0 | 0.13 | 0.87 | 0.80 | 94 | 1007.6 |
| 20260510013004 | 54 | 0 | 0.0 | 0.0 | 0.14 | 0.87 | 0.80 | 94 | 1007.6 |
| 20260510012504 | 54 | 0 | 0.0 | 0.0 | 0.17 | 0.88 | 0.80 | 94 | 1007.8 |
| 20260510012003 | 54 | 266 | 0.0 | 1.0 | 0.30 | 0.88 | 0.80 | 94 | 1007.7 |
| 20260510011503 | 54 | 266 | 0.0 | 1.0 | 0.40 | 0.88 | 0.80 | 94 | 1007.2 |
| 20260510011003 | 54 | 0 | 0.0 | 0.0 | 0.43 | 0.89 | 0.80 | 94 | 1007.4 |
| 20260510005003 | 54 | 14 | 0.0 | 6.0 | 0.39 | 0.84 | 0.75 | 93 | 1008.0 |
| 20260510004503 | 54 | 14 | 0.0 | 6.0 | 0.36 | 0.81 | 0.72 | 92 | 1008.1 |
| 20260510004004 | 54 | 0 | 0.0 | 0.0 | 0.33 | 0.78 | 0.69 | 91 | 1008.0 |
| 20260510003504 | 54 | 344 | 0.0 | 8.0 | 0.31 | 0.76 | 0.67 | 91 | 1007.6 |
| 20260510003004 | 54 | 347 | 1.0 | 8.0 | 0.29 | 0.74 | 0.65 | 89 | 1007.7 |
| 20260510002503 | 55 | 348 | 3.0 | 21.0 | 0.26 | 0.71 | 0.62 | 87 | 1007.7 |
| 20260510002004 | 56 | 348 | 2.0 | 21.0 | 0.14 | 0.59 | 0.50 | 82 | 1007.5 |
| 20260510001004 | 61 | 339 | 2.0 | 24.0 | 0.01 | 0.46 | 0.37 | 64 | 1006.8 |
| 20260510000504 | 65 | 344 | 1.0 | 24.0 | 0.00 | 0.45 | 0.36 | 56 | 1006.9 |
| 20260510000004 | 67 | 183 | 0.0 | 3.0 | 0.00 | 0.45 | 0.36 | 54 | 1006.0 |
| 20260509235504 | 67 | 183 | 0.0 | 3.0 | 0.00 | 0.45 | 0.36 | 54 | 1005.2 |
| 20260509235004 | 67 | 251 | 0.0 | 4.0 | 0.00 | 0.45 | 0.36 | 54 | 1005.2 |
| 20260509234003 | 67 | 146 | 0.0 | 5.0 | 0.00 | 0.45 | 0.36 | 54 | 1005.0 |
| 20260509233504 | 67 | 154 | 0.0 | 6.0 | 0.00 | 0.45 | 0.36 | 54 | 1004.9 |
| 20260509233004 | 68 | 182 | 0.0 | 6.0 | 0.00 | 0.45 | 0.36 | 53 | 1004.9 |
| 20260509232504 | 68 | 161 | 0.0 | 2.0 | 0.00 | 0.45 | 0.36 | 53 | 1005.0 |
| 20260509232003 | 68 | 215 | 0.0 | 8.0 | 0.00 | 0.45 | 0.36 | 53 | 1005.0 |
| 20260509231003 | 68 | 190 | 0.0 | 12.0 | 0.00 | 0.45 | 0.36 | 52 | 1004.6 |
| 20260509230003 | 69 | 208 | 0.0 | 9.0 | 0.00 | 0.45 | 0.36 | 51 | 1004.5 |
| 20260509225503 | 69 | 241 | 0.0 | 15.0 | 0.00 | 0.45 | 0.36 | 51 | 1004.6 |
| 20260509225003 | 69 | 230 | 0.0 | 15.0 | 0.00 | 0.45 | 0.36 | 50 | 1004.7 |
| 20260509224504 | 70 | 202 | 0.0 | 11.0 | 0.00 | 0.45 | 0.36 | 50 | 1004.7 |
| 20260509224004 | 70 | 217 | 0.0 | 12.0 | 0.00 | 0.45 | 0.36 | 50 | 1004.7 |
| 20260509223504 | 70 | 235 | 0.0 | 12.0 | 0.00 | 0.46 | 0.36 | 49 | 1004.7 |
| 20260509223003 | 70 | 269 | 0.0 | 16.0 | 0.00 | 0.46 | 0.36 | 49 | 1004.7 |
| 20260509222503 | 70 | 271 | 0.0 | 16.0 | 0.00 | 0.46 | 0.36 | 50 | 1004.6 |
| 20260509221503 | 70 | 203 | 0.0 | 12.0 | 0.00 | 0.46 | 0.36 | 50 | 1004.5 |
| 20260509221004 | 69 | 198 | 1.0 | 12.0 | 0.00 | 0.46 | 0.36 | 50 | 1004.6 |
| 20260509220004 | 69 | 255 | 0.0 | 10.0 | 0.00 | 0.46 | 0.36 | 51 | 1004.7 |
| 20260509215503 | 69 | 235 | 1.0 | 21.0 | 0.00 | 0.46 | 0.36 | 51 | 1004.9 |
| 20260509215003 | 69 | 237 | 1.0 | 21.0 | 0.00 | 0.46 | 0.36 | 52 | 1004.9 |
| 20260509214504 | 70 | 168 | 0.0 | 7.0 | 0.00 | 0.46 | 0.36 | 52 | 1004.9 |
| 20260509214003 | 70 | 138 | 0.0 | 7.0 | 0.00 | 0.46 | 0.36 | 52 | 1004.9 |
| 20260509213503 | 70 | 178 | 0.0 | 7.0 | 0.00 | 0.46 | 0.36 | 52 | 1004.8 |
| 20260509213003 | 69 | 187 | 1.0 | 18.0 | 0.00 | 0.47 | 0.36 | 52 | 1004.8 |
| 20260509212503 | 69 | 181 | 1.0 | 18.0 | 0.00 | 0.47 | 0.36 | 51 | 1004.9 |
| 20260509212003 | 69 | 199 | 0.0 | 5.0 | 0.00 | 0.48 | 0.36 | 53 | 1004.8 |
| 20260509211503 | 69 | 264 | 0.0 | 6.0 | 0.00 | 0.48 | 0.36 | 52 | 1004.8 |
| 20260509211004 | 69 | 265 | 0.0 | 6.0 | 0.00 | 0.49 | 0.36 | 52 | 1004.8 |
| 20260509210504 | 69 | 263 | 0.0 | 8.0 | 0.00 | 0.49 | 0.36 | 52 | 1004.8 |
| 20260509210004 | 69 | 244 | 0.0 | 8.0 | 0.00 | 0.49 | 0.36 | 52 | 1004.9 |
| 20260509205503 | 69 | 193 | 0.0 | 7.0 | 0.00 | 0.49 | 0.36 | 54 | 1004.9 |
| 20260509205003 | 69 | 185 | 0.0 | 12.0 | 0.00 | 0.49 | 0.36 | 53 | 1005.0 |
| 20260509204504 | 69 | 192 | 0.0 | 12.0 | 0.00 | 0.49 | 0.36 | 53 | 1005.3 |
| 20260509203503 | 69 | 311 | 0.0 | 11.0 | 0.00 | 0.49 | 0.36 | 52 | 1005.1 |
| 20260509203003 | 69 | 246 | 0.0 | 11.0 | 0.00 | 0.49 | 0.36 | 52 | 1005.4 |
| 20260509202503 | 69 | 168 | 0.0 | 3.0 | 0.00 | 0.49 | 0.36 | 53 | 1005.3 |
| 20260509202003 | 68 | 197 | 0.0 | 3.0 | 0.00 | 0.49 | 0.36 | 53 | 1005.3 |
| 20260509201003 | 68 | 282 | 0.0 | 4.0 | 0.00 | 0.49 | 0.36 | 54 | 1005.6 |
| 20260509200504 | 68 | 295 | 0.0 | 4.0 | 0.00 | 0.49 | 0.36 | 55 | 1005.6 |
| 20260509200004 | 67 | 179 | 0.0 | 5.0 | 0.00 | 0.49 | 0.36 | 59 | 1005.7 |
| 20260509195504 | 67 | 258 | 0.0 | 10.0 | 0.00 | 0.49 | 0.36 | 58 | 1005.9 |
| 20260509195004 | 67 | 273 | 0.0 | 10.0 | 0.00 | 0.49 | 0.36 | 58 | 1006.0 |
| 20260509194503 | 67 | 203 | 0.0 | 5.0 | 0.00 | 0.49 | 0.36 | 59 | 1006.1 |
| 20260509193503 | 66 | 206 | 0.0 | 6.0 | 0.00 | 0.49 | 0.36 | 60 | 1006.2 |
| 20260509193003 | 66 | 230 | 0.0 | 10.0 | 0.00 | 0.49 | 0.36 | 61 | 1006.1 |
| 20260509192504 | 66 | 231 | 1.0 | 10.0 | 0.00 | 0.49 | 0.36 | 58 | 1006.3 |
| 20260509192004 | 66 | 232 | 1.0 | 11.0 | 0.00 | 0.49 | 0.36 | 61 | 1006.4 |
| 20260509191504 | 66 | 195 | 1.0 | 14.0 | 0.00 | 0.49 | 0.36 | 61 | 1006.3 |
| 20260509191004 | 66 | 188 | 1.0 | 14.0 | 0.00 | 0.49 | 0.36 | 61 | 1006.5 |
| 20260509190504 | 66 | 196 | 0.0 | 9.0 | 0.00 | 0.49 | 0.36 | 60 | 1006.5 |
| 20260509190004 | 66 | 208 | 0.0 | 6.0 | 0.00 | 0.49 | 0.36 | 60 | 1006.5 |
| 20260509185004 | 65 | 228 | 0.0 | 8.0 | 0.00 | 0.49 | 0.36 | 58 | 1006.4 |
| 20260509184503 | 65 | 230 | 1.0 | 8.0 | 0.00 | 0.49 | 0.36 | 59 | 1006.7 |
| 20260509184003 | 65 | 245 | 0.0 | 6.0 | 0.00 | 0.49 | 0.36 | 60 | 1006.6 |
| 20260509183503 | 65 | 220 | 0.0 | 5.0 | 0.00 | 0.49 | 0.36 | 60 | 1006.6 |
| 20260509183004 | 65 | 194 | 0.0 | 11.0 | 0.00 | 0.49 | 0.36 | 61 | 1006.7 |
| 20260509182503 | 65 | 179 | 0.0 | 11.0 | 0.00 | 0.49 | 0.36 | 62 | 1006.7 |
| 20260509182004 | 65 | 137 | 0.0 | 6.0 | 0.00 | 0.49 | 0.36 | 64 | 1006.7 |
| 20260509181504 | 64 | 134 | 0.0 | 6.0 | 0.00 | 0.49 | 0.36 | 63 | 1006.5 |
| 20260509181004 | 64 | 270 | 0.0 | 5.0 | 0.00 | 0.49 | 0.36 | 63 | 1006.6 |
| 20260509175003 | 64 | 187 | 0.0 | 8.0 | 0.00 | 0.49 | 0.36 | 66 | 1006.7 |
| 20260509174503 | 64 | 229 | 0.0 | 11.0 | 0.00 | 0.49 | 0.36 | 67 | 1006.6 |
| 20260509173004 | 63 | 271 | 0.0 | 2.0 | 0.00 | 0.49 | 0.36 | 72 | 1006.8 |
| 20260509172504 | 62 | 269 | 0.0 | 4.0 | 0.00 | 0.49 | 0.36 | 74 | 1006.8 |
| 20260509172003 | 61 | 259 | 0.0 | 4.0 | 0.00 | 0.49 | 0.36 | 75 | 1007.0 |
| 20260509171003 | 61 | 223 | 0.0 | 14.0 | 0.00 | 0.49 | 0.36 | 75 | 1007.1 |
| 20260509170504 | 61 | 237 | 0.0 | 14.0 | 0.00 | 0.49 | 0.36 | 75 | 1007.1 |
| 20260509165504 | 60 | 284 | 0.0 | 4.0 | 0.00 | 0.49 | 0.36 | 78 | 1006.9 |
| 20260509164504 | 59 | 136 | 0.0 | 1.0 | 0.00 | 0.49 | 0.36 | 80 | 1007.2 |
| 20260509164003 | 59 | 270 | 0.0 | 2.0 | 0.00 | 0.49 | 0.36 | 82 | 1007.2 |
| 20260509163503 | 58 | 274 | 0.0 | 4.0 | 0.00 | 0.49 | 0.36 | 82 | 1007.2 |
| 20260509162003 | 58 | 268 | 0.0 | 7.0 | 0.00 | 0.49 | 0.36 | 83 | 1007.5 |
| 20260509161503 | 58 | 257 | 0.0 | 7.0 | 0.00 | 0.49 | 0.36 | 83 | 1007.3 |
| 20260509161004 | 57 | 0 | 0.0 | 0.0 | 0.00 | 0.49 | 0.36 | 85 | 1007.3 |
| 20260509160504 | 57 | 0 | 0.0 | 0.0 | 0.00 | 0.49 | 0.36 | 84 | 1007.1 |
| 20260509160004 | 57 | 0 | 0.0 | 0.0 | 0.00 | 0.49 | 0.36 | 85 | 1007.1 |
| 20260509155004 | 56 | 248 | 0.0 | 4.0 | 0.00 | 0.49 | 0.36 | 85 | 1007.0 |
| 20260509154504 | 56 | 227 | 0.0 | 4.0 | 0.00 | 0.49 | 0.36 | 85 | 1007.1 |
| 20260509153504 | 56 | 0 | 0.0 | 0.0 | 0.00 | 0.49 | 0.36 | 87 | 1007.1 |
| 20260509153004 | 56 | 271 | 0.0 | 4.0 | 0.00 | 0.49 | 0.36 | 87 | 1007.1 |
| 20260509152503 | 56 | 271 | 0.0 | 4.0 | 0.00 | 0.49 | 0.36 | 87 | 1007.1 |
| 20260509152003 | 56 | 0 | 0.0 | 0.0 | 0.00 | 0.49 | 0.36 | 87 | 1007.1 |
| 20260509151503 | 56 | 237 | 0.0 | 1.0 | 0.00 | 0.49 | 0.36 | 88 | 1007.2 |
| 20260509151004 | 55 | 256 | 0.0 | 6.0 | 0.00 | 0.49 | 0.36 | 88 | 1007.3 |
| 20260509150004 | 55 | 353 | 0.0 | 1.0 | 0.00 | 0.49 | 0.36 | 88 | 1007.3 |
| 20260509145503 | 56 | 254 | 0.0 | 6.0 | 0.00 | 0.49 | 0.36 | 88 | 1007.2 |
| 20260509144004 | 55 | 167 | 0.0 | 3.0 | 0.00 | 0.49 | 0.36 | 90 | 1007.0 |
| 20260509143504 | 55 | 188 | 0.0 | 3.0 | 0.00 | 0.49 | 0.36 | 90 | 1007.0 |
| 20260509142504 | 54 | 0 | 0.0 | 0.0 | 0.00 | 0.49 | 0.36 | 90 | 1007.2 |
| 20260509141503 | 54 | 0 | 0.0 | 0.0 | 0.00 | 0.49 | 0.36 | 91 | 1007.3 |
| 20260509141004 | 54 | 0 | 0.0 | 0.0 | 0.00 | 0.49 | 0.36 | 91 | 1007.1 |
| 20260509140503 | 54 | 0 | 0.0 | 0.0 | 0.00 | 0.49 | 0.36 | 90 | 1007.0 |
| 20260509140005 | 54 | 282 | 0.0 | 3.0 | 0.00 | 0.49 | 0.36 | 91 | 1007.1 |
| 20260509135503 | 54 | 282 | 0.0 | 3.0 | 0.00 | 0.49 | 0.36 | 91 | 1007.1 |
| 20260509135003 | 54 | 221 | 0.0 | 1.0 | 0.00 | 0.49 | 0.36 | 91 | 1007.1 |
| 20260509134503 | 54 | 221 | 0.0 | 1.0 | 0.00 | 0.49 | 0.36 | 92 | 1007.0 |
| 20260509134004 | 54 | 0 | 0.0 | 0.0 | 0.00 | 0.49 | 0.36 | 92 | 1007.2 |
| 20260509133504 | 53 | 0 | 0.0 | 0.0 | 0.00 | 0.49 | 0.36 | 92 | 1007.3 |
| 20260509133004 | 53 | 0 | 0.0 | 0.0 | 0.00 | 0.49 | 0.36 | 92 | 1007.4 |
| 20260509132503 | 53 | 0 | 0.0 | 0.0 | 0.00 | 0.49 | 0.36 | 92 | 1007.5 |
| 20260509132003 | 52 | 0 | 0.0 | 0.0 | 0.00 | 0.49 | 0.36 | 93 | 1007.5 |
| 20260509131503 | 52 | 0 | 0.0 | 0.0 | 0.00 | 0.49 | 0.36 | 93 | 1007.4 |
| 20260509131003 | 52 | 0 | 0.0 | 0.0 | 0.00 | 0.49 | 0.36 | 93 | 1007.5 |
| 20260509130004 | 52 | 0 | 0.0 | 0.0 | 0.00 | 0.49 | 0.36 | 93 | 1007.5 |
| 20260509125004 | 52 | 0 | 0.0 | 0.0 | 0.00 | 0.49 | 0.36 | 93 | 1007.4 |
| 20260509124504 | 51 | 0 | 0.0 | 0.0 | 0.00 | 0.49 | 0.36 | 93 | 1007.4 |
| 20260509123504 | 51 | 0 | 0.0 | 0.0 | 0.01 | 0.50 | 0.36 | 93 | 1007.4 |
| 20260509123004 | 51 | 0 | 0.0 | 0.0 | 0.01 | 0.50 | 0.36 | 93 | 1007.5 |
| 20260509122503 | 51 | 0 | 0.0 | 0.0 | 0.01 | 0.50 | 0.36 | 93 | 1007.6 |
| 20260509122003 | 51 | 0 | 0.0 | 0.0 | 0.01 | 0.50 | 0.36 | 93 | 1007.7 |
| 20260509121503 | 51 | 0 | 0.0 | 0.0 | 0.01 | 0.50 | 0.36 | 93 | 1007.7 |
| 20260509121003 | 51 | 0 | 0.0 | 0.0 | 0.01 | 0.50 | 0.36 | 93 | 1007.7 |
| 20260509120004 | 51 | 0 | 0.0 | 0.0 | 0.01 | 0.50 | 0.36 | 93 | 1007.6 |
| 20260509115504 | 51 | 0 | 0.0 | 0.0 | 0.02 | 0.50 | 0.36 | 93 | 1007.8 |
| 20260509115004 | 51 | 0 | 0.0 | 0.0 | 0.02 | 0.50 | 0.36 | 93 | 1007.8 |
| 20260509114504 | 51 | 0 | 0.0 | 0.0 | 0.03 | 0.50 | 0.36 | 93 | 1007.8 |
| 20260509114004 | 51 | 0 | 0.0 | 0.0 | 0.04 | 0.50 | 0.36 | 93 | 1007.7 |
| 20260509113504 | 51 | 0 | 0.0 | 0.0 | 0.04 | 0.49 | 0.35 | 93 | 1007.7 |
| 20260509113004 | 51 | 0 | 0.0 | 0.0 | 0.04 | 0.49 | 0.35 | 94 | 1007.7 |
| 20260509112503 | 50 | 0 | 0.0 | 0.0 | 0.04 | 0.49 | 0.35 | 94 | 1007.7 |
| 20260509112003 | 50 | 0 | 0.0 | 0.0 | 0.05 | 0.49 | 0.35 | 94 | 1007.5 |
| 20260509111503 | 50 | 0 | 0.0 | 0.0 | 0.05 | 0.49 | 0.35 | 94 | 1007.5 |
| 20260509111004 | 50 | 0 | 0.0 | 0.0 | 0.05 | 0.49 | 0.35 | 94 | 1007.4 |
| 20260509110504 | 50 | 0 | 0.0 | 0.0 | 0.05 | 0.49 | 0.35 | 94 | 1007.4 |
| 20260509110004 | 50 | 0 | 0.0 | 0.0 | 0.06 | 0.49 | 0.35 | 94 | 1007.3 |
| 20260509105504 | 50 | 0 | 0.0 | 0.0 | 0.05 | 0.48 | 0.34 | 94 | 1007.3 |
| 20260509105004 | 50 | 0 | 0.0 | 0.0 | 0.05 | 0.48 | 0.34 | 93 | 1007.5 |
| 20260509104503 | 50 | 0 | 0.0 | 0.0 | 0.05 | 0.47 | 0.33 | 93 | 1007.6 |
| 20260509104003 | 50 | 0 | 0.0 | 0.0 | 0.04 | 0.46 | 0.32 | 93 | 1007.3 |
| 20260509103503 | 50 | 0 | 0.0 | 0.0 | 0.03 | 0.45 | 0.31 | 93 | 1007.5 |
| 20260509103004 | 50 | 0 | 0.0 | 0.0 | 0.03 | 0.45 | 0.31 | 93 | 1007.3 |
| 20260509102503 | 50 | 0 | 0.0 | 0.0 | 0.04 | 0.45 | 0.31 | 93 | 1007.4 |
| 20260509101503 | 50 | 0 | 0.0 | 0.0 | 0.03 | 0.44 | 0.30 | 93 | 1007.5 |
| 20260509101003 | 50 | 156 | 0.0 | 2.0 | 0.03 | 0.44 | 0.30 | 93 | 1007.5 |
| 20260509100503 | 50 | 156 | 0.0 | 2.0 | 0.04 | 0.44 | 0.30 | 93 | 1007.5 |
| 20260509095504 | 50 | 0 | 0.0 | 0.0 | 0.03 | 0.43 | 0.29 | 93 | 1007.5 |
| 20260509094504 | 50 | 0 | 0.0 | 0.0 | 0.03 | 0.42 | 0.28 | 94 | 1007.5 |
| 20260509094003 | 50 | 0 | 0.0 | 0.0 | 0.04 | 0.42 | 0.28 | 94 | 1007.6 |
| 20260509093503 | 50 | 0 | 0.0 | 0.0 | 0.05 | 0.42 | 0.28 | 94 | 1007.6 |
| 20260509093003 | 50 | 0 | 0.0 | 0.0 | 0.06 | 0.42 | 0.28 | 94 | 1007.6 |
| 20260509092503 | 50 | 0 | 0.0 | 0.0 | 0.06 | 0.41 | 0.27 | 94 | 1007.7 |
| 20260509092003 | 50 | 0 | 0.0 | 0.0 | 0.08 | 0.41 | 0.27 | 94 | 1007.8 |
| 20260509091504 | 49 | 0 | 0.0 | 0.0 | 0.09 | 0.41 | 0.27 | 94 | 1007.8 |
| 20260509091004 | 50 | 0 | 0.0 | 0.0 | 0.10 | 0.41 | 0.27 | 94 | 1007.9 |
| 20260509090503 | 49 | 0 | 0.0 | 0.0 | 0.09 | 0.40 | 0.26 | 94 | 1007.9 |
| 20260509090004 | 49 | 158 | 0.0 | 3.0 | 0.09 | 0.40 | 0.26 | 94 | 1007.9 |
| 20260509085503 | 49 | 158 | 0.0 | 3.0 | 0.09 | 0.40 | 0.26 | 94 | 1008.0 |
| 20260509085004 | 49 | 0 | 0.0 | 0.0 | 0.08 | 0.39 | 0.25 | 94 | 1008.0 |
| 20260509084504 | 49 | 0 | 0.0 | 0.0 | 0.08 | 0.39 | 0.25 | 94 | 1008.0 |
| 20260509084004 | 49 | 0 | 0.0 | 0.0 | 0.08 | 0.38 | 0.24 | 94 | 1008.0 |
| 20260509083504 | 49 | 0 | 0.0 | 0.0 | 0.08 | 0.37 | 0.23 | 93 | 1008.2 |
| 20260509083004 | 49 | 0 | 0.0 | 0.0 | 0.09 | 0.36 | 0.22 | 93 | 1008.3 |
| 20260509082003 | 49 | 0 | 0.0 | 0.0 | 0.09 | 0.33 | 0.19 | 93 | 1008.2 |
| 20260509081503 | 49 | 0 | 0.0 | 0.0 | 0.08 | 0.32 | 0.18 | 93 | 1008.2 |
| 20260509080504 | 49 | 0 | 0.0 | 0.0 | 0.08 | 0.31 | 0.17 | 93 | 1008.4 |
| 20260509080004 | 49 | 0 | 0.0 | 0.0 | 0.08 | 0.31 | 0.17 | 93 | 1008.6 |
| 20260509075503 | 49 | 0 | 0.0 | 0.0 | 0.08 | 0.31 | 0.17 | 93 | 1008.3 |
| 20260509074504 | 50 | 0 | 0.0 | 0.0 | 0.09 | 0.31 | 0.17 | 93 | 1008.6 |
| 20260509074004 | 50 | 0 | 0.0 | 0.0 | 0.09 | 0.30 | 0.16 | 94 | 1008.6 |
| 20260509073504 | 50 | 0 | 0.0 | 0.0 | 0.07 | 0.28 | 0.14 | 94 | 1008.4 |
| 20260509072504 | 49 | 0 | 0.0 | 0.0 | 0.05 | 0.25 | 0.11 | 94 | 1008.6 |
| 20260509072004 | 49 | 0 | 0.0 | 0.0 | 0.04 | 0.24 | 0.10 | 94 | 1008.5 |
| 20260509071503 | 49 | 0 | 0.0 | 0.0 | 0.03 | 0.23 | 0.09 | 94 | 1008.4 |
| 20260509071003 | 50 | 0 | 0.0 | 0.0 | 0.03 | 0.23 | 0.09 | 94 | 1008.4 |
| 20260509070503 | 49 | 0 | 0.0 | 0.0 | 0.03 | 0.23 | 0.09 | 94 | 1008.3 |
| 20260509070004 | 49 | 0 | 0.0 | 0.0 | 0.03 | 0.23 | 0.09 | 94 | 1008.4 |
| 20260509065004 | 50 | 0 | 0.0 | 0.0 | 0.03 | 0.22 | 0.08 | 94 | 1008.5 |
| 20260509064504 | 50 | 0 | 0.0 | 0.0 | 0.03 | 0.22 | 0.08 | 94 | 1008.6 |
| 20260509064004 | 50 | 0 | 0.0 | 0.0 | 0.02 | 0.21 | 0.07 | 94 | 1008.7 |
| 20260509063003 | 50 | 0 | 0.0 | 0.0 | 0.01 | 0.20 | 0.06 | 94 | 1008.8 |
| 20260509062503 | 50 | 0 | 0.0 | 0.0 | 0.01 | 0.20 | 0.06 | 94 | 1008.8 |
| 20260509062003 | 50 | 0 | 0.0 | 0.0 | 0.01 | 0.20 | 0.06 | 94 | 1008.9 |
| 20260509061504 | 50 | 0 | 0.0 | 0.0 | 0.02 | 0.20 | 0.06 | 94 | 1008.8 |
| 20260509061004 | 50 | 0 | 0.0 | 0.0 | 0.02 | 0.20 | 0.06 | 94 | 1009.0 |
| 20260509060504 | 50 | 0 | 0.0 | 0.0 | 0.02 | 0.20 | 0.06 | 93 | 1009.1 |
| 20260509060004 | 50 | 0 | 0.0 | 0.0 | 0.02 | 0.20 | 0.06 | 93 | 1009.2 |
| 20260509055504 | 50 | 0 | 0.0 | 0.0 | 0.02 | 0.19 | 0.05 | 93 | 1009.2 |
| 20260509054503 | 50 | 0 | 0.0 | 0.0 | 0.02 | 0.19 | 0.05 | 93 | 1009.3 |
| 20260509054003 | 50 | 0 | 0.0 | 0.0 | 0.03 | 0.19 | 0.05 | 93 | 1009.3 |
| 20260509053504 | 50 | 0 | 0.0 | 0.0 | 0.03 | 0.19 | 0.05 | 93 | 1009.2 |
| 20260509053004 | 50 | 0 | 0.0 | 0.0 | 0.04 | 0.19 | 0.05 | 93 | 1009.4 |
| 20260509052504 | 50 | 0 | 0.0 | 0.0 | 0.04 | 0.19 | 0.05 | 93 | 1009.4 |
| 20260509052003 | 50 | 0 | 0.0 | 0.0 | 0.03 | 0.18 | 0.04 | 93 | 1009.6 |
| 20260509051503 | 50 | 0 | 0.0 | 0.0 | 0.04 | 0.18 | 0.04 | 93 | 1009.6 |
| 20260509051003 | 50 | 0 | 0.0 | 0.0 | 0.04 | 0.18 | 0.04 | 93 | 1009.7 |
| 20260509050004 | 50 | 0 | 0.0 | 0.0 | 0.04 | 0.18 | 0.04 | 93 | 1009.8 |
| 20260509045503 | 50 | 0 | 0.0 | 0.0 | 0.03 | 0.17 | 0.03 | 93 | 1009.6 |
| 20260509045003 | 50 | 0 | 0.0 | 0.0 | 0.04 | 0.17 | 0.03 | 92 | 1009.9 |
| 20260509044504 | 50 | 0 | 0.0 | 0.0 | 0.04 | 0.17 | 0.03 | 92 | 1009.9 |
| 20260509044004 | 50 | 0 | 0.0 | 0.0 | 0.04 | 0.16 | 0.02 | 92 | 1009.8 |
| 20260509043504 | 50 | 0 | 0.0 | 0.0 | 0.04 | 0.16 | 0.02 | 92 | 1009.8 |
| 20260509042504 | 50 | 0 | 0.0 | 0.0 | 0.03 | 0.15 | 0.01 | 92 | 1009.9 |
| 20260509042004 | 50 | 0 | 0.0 | 0.0 | 0.04 | 0.15 | 0.01 | 92 | 1010.1 |
| 20260509041504 | 50 | 0 | 0.0 | 0.0 | 0.03 | 0.14 | 0.00 | 92 | 1010.1 |
| 20260509041003 | 50 | 0 | 0.0 | 0.0 | 0.03 | 0.14 | 0.00 | 92 | 1010.0 |
| 20260509040503 | 50 | 0 | 0.0 | 0.0 | 0.03 | 0.14 | 0.00 | 92 | 1010.1 |
| 20260509040005 | 50 | 0 | 0.0 | 0.0 | 0.03 | 0.14 | 0.00 | 92 | 1010.3 |
| 20260509035503 | 50 | 0 | 0.0 | 0.0 | 0.03 | 0.14 | 0.14 | 92 | 1010.5 |
| 20260509035003 | 50 | 0 | 0.0 | 0.0 | 0.02 | 0.13 | 0.13 | 92 | 1010.5 |
| 20260509034503 | 50 | 0 | 0.0 | 0.0 | 0.02 | 0.13 | 0.13 | 92 | 1010.5 |
| 20260509033504 | 51 | 0 | 0.0 | 0.0 | 0.01 | 0.12 | 0.12 | 91 | 1010.5 |
| 20260509032504 | 51 | 0 | 0.0 | 0.0 | 0.02 | 0.12 | 0.12 | 92 | 1010.5 |
| 20260509032003 | 51 | 0 | 0.0 | 0.0 | 0.01 | 0.11 | 0.11 | 91 | 1010.7 |
| 20260509031503 | 51 | 0 | 0.0 | 0.0 | 0.02 | 0.11 | 0.11 | 91 | 1010.6 |
| 20260509031003 | 51 | 0 | 0.0 | 0.0 | 0.02 | 0.11 | 0.11 | 91 | 1010.7 |
| 20260509030503 | 51 | 0 | 0.0 | 0.0 | 0.02 | 0.11 | 0.11 | 91 | 1010.7 |
| 20260509025504 | 51 | 0 | 0.0 | 0.0 | 0.03 | 0.11 | 0.11 | 91 | 1010.9 |
| 20260509025004 | 51 | 0 | 0.0 | 0.0 | 0.03 | 0.11 | 0.11 | 91 | 1011.0 |
| 20260509024503 | 51 | 0 | 0.0 | 0.0 | 0.03 | 0.11 | 0.11 | 91 | 1011.0 |
| 20260509024003 | 51 | 0 | 0.0 | 0.0 | 0.04 | 0.11 | 0.11 | 91 | 1011.0 |
| 20260509023004 | 51 | 0 | 0.0 | 0.0 | 0.03 | 0.10 | 0.10 | 91 | 1011.0 |
| 20260509022504 | 51 | 0 | 0.0 | 0.0 | 0.04 | 0.10 | 0.10 | 91 | 1010.9 |
| 20260509022003 | 51 | 0 | 0.0 | 0.0 | 0.04 | 0.10 | 0.10 | 91 | 1011.0 |
| 20260509021503 | 51 | 0 | 0.0 | 0.0 | 0.03 | 0.09 | 0.09 | 91 | 1011.0 |
| 20260509021004 | 51 | 0 | 0.0 | 0.0 | 0.04 | 0.09 | 0.09 | 91 | 1011.0 |
| 20260509020503 | 51 | 0 | 0.0 | 0.0 | 0.04 | 0.09 | 0.09 | 91 | 1011.1 |
| 20260509020004 | 51 | 0 | 0.0 | 0.0 | 0.03 | 0.08 | 0.08 | 91 | 1011.1 |